createdAt,value
2023-05-25T00:01:12.611Z,74.90
2023-05-25T00:03:41.629Z,75.21
2023-05-25T00:06:10.888Z,75.05
2023-05-25T00:08:43.541Z,75.31
2023-05-25T00:11:13.034Z,75.67
2023-05-25T00:13:42.158Z,75.22
2023-05-25T00:16:11.024Z,75.53
2023-05-25T00:18:40.064Z,75.66
2023-05-25T00:21:09.069Z,75.52
2023-05-25T00:23:38.175Z,75.85
2023-05-25T00:26:07.056Z,76.18
2023-05-25T00:28:36.253Z,75.95
2023-05-25T00:31:05.260Z,76.53
2023-05-25T00:33:34.201Z,76.26
2023-05-25T00:36:04.121Z,76.78
2023-05-25T00:38:33.129Z,76.80
2023-05-25T00:41:02.124Z,76.66
2023-05-25T00:43:31.026Z,77.09
2023-05-25T00:46:01.124Z,77.20
2023-05-25T00:48:30.292Z,77.52
2023-05-25T00:51:00.498Z,77.98
2023-05-25T00:53:29.761Z,78.67
2023-05-25T00:56:14.912Z,78.59
2023-05-25T00:58:46.065Z,79.18
2023-05-25T01:01:17.709Z,79.59
2023-05-25T01:03:54.429Z,80.03
2023-05-25T01:06:24.489Z,80.28
2023-05-25T01:09:00.874Z,80.26
2023-05-25T01:11:35.865Z,80.51
2023-05-25T01:14:05.074Z,80.70
2023-05-25T01:16:35.482Z,81.07
2023-05-25T01:19:05.459Z,81.75
2023-05-25T01:21:38.362Z,82.46
2023-05-25T01:24:47.250Z,82.46
2023-05-25T01:27:33.968Z,82.72
2023-05-25T01:30:05.568Z,83.66
2023-05-25T01:32:35.950Z,83.92
2023-05-25T01:35:07.180Z,83.62
2023-05-25T01:37:46.167Z,84.67
2023-05-25T01:40:16.306Z,84.65
2023-05-25T01:42:45.355Z,84.98
2023-05-25T01:45:15.641Z,85.35
2023-05-25T01:47:56.789Z,85.06
2023-05-25T01:50:51.951Z,85.12
2023-05-25T01:53:25.146Z,85.25
2023-05-25T01:56:03.337Z,86.16
2023-05-25T01:58:39.548Z,86.44
2023-05-25T02:01:15.749Z,86.28
2023-05-25T02:03:47.772Z,85.88
2023-05-25T02:06:17.286Z,85.98
2023-05-25T02:08:46.392Z,86.58
2023-05-25T02:11:15.794Z,87.16
2023-05-25T02:13:44.773Z,87.26
2023-05-25T02:16:13.886Z,87.07
2023-05-25T02:18:47.248Z,87.36
2023-05-25T02:21:17.535Z,87.71
2023-05-25T02:23:47.081Z,87.16
2023-05-25T02:26:16.589Z,87.57
2023-05-25T02:28:48.628Z,87.25
2023-05-25T02:31:19.749Z,87.46
2023-05-25T02:33:49.206Z,87.93
2023-05-25T02:36:18.332Z,87.86
2023-05-25T02:38:50.413Z,88.04
2023-05-25T02:41:21.857Z,87.95
2023-05-25T02:43:51.375Z,88.26
2023-05-25T02:46:20.948Z,88.12
2023-05-25T02:48:49.972Z,88.56
2023-05-25T02:51:18.897Z,88.85
2023-05-25T02:53:48.853Z,88.82
2023-05-25T02:56:17.616Z,88.53
2023-05-25T02:58:46.804Z,89.07
2023-05-25T03:01:20.992Z,89.17
2023-05-25T03:03:54.357Z,88.85
2023-05-25T03:06:28.540Z,88.63
2023-05-25T03:09:01.339Z,89.16
2023-05-25T03:11:30.868Z,88.89
2023-05-25T03:14:00.771Z,89.41
2023-05-25T03:16:31.353Z,89.11
2023-05-25T03:19:00.469Z,89.84
2023-05-25T03:21:29.654Z,89.64
2023-05-25T03:23:58.782Z,89.77
2023-05-25T03:26:27.760Z,89.56
2023-05-25T03:28:57.143Z,89.95
2023-05-25T03:31:27.020Z,89.94
2023-05-25T03:33:59.994Z,89.74
2023-05-25T03:36:31.801Z,89.74
2023-05-25T03:39:01.459Z,90.64
2023-05-25T03:41:31.295Z,90.01
2023-05-25T03:44:00.258Z,89.95
2023-05-25T03:46:29.269Z,90.00
2023-05-25T03:49:00.534Z,89.96
2023-05-25T03:51:30.130Z,90.27
2023-05-25T03:53:59.086Z,90.44
2023-05-25T03:56:27.984Z,90.74
2023-05-25T03:58:56.784Z,90.64
2023-05-25T04:01:27.304Z,90.58
2023-05-25T04:03:58.045Z,90.53
2023-05-25T04:06:27.220Z,90.95
2023-05-25T04:08:56.084Z,90.78
2023-05-25T04:11:26.254Z,90.48
2023-05-25T04:13:56.105Z,90.70
2023-05-25T04:16:28.338Z,90.66
2023-05-25T04:18:57.591Z,91.07
2023-05-25T04:21:27.347Z,90.65
2023-05-25T04:23:56.250Z,90.77
2023-05-25T04:26:28.771Z,90.95
2023-05-25T04:28:59.118Z,90.80
2023-05-25T04:31:47.986Z,90.53
2023-05-25T04:34:55.315Z,90.70
2023-05-25T04:37:37.637Z,91.02
2023-05-25T04:40:12.347Z,90.82
2023-05-25T04:42:42.358Z,90.74
2023-05-25T04:45:11.714Z,90.90
2023-05-25T04:47:41.673Z,90.99
2023-05-25T04:50:12.128Z,91.05
2023-05-25T04:52:41.279Z,91.08
2023-05-25T04:55:12.020Z,90.84
2023-05-25T04:57:43.837Z,90.69
2023-05-25T05:00:16.023Z,90.67
2023-05-25T05:02:47.699Z,90.82
2023-05-25T05:05:16.831Z,90.76
2023-05-25T05:07:45.781Z,90.95
2023-05-25T05:10:14.868Z,90.97
2023-05-25T05:12:49.087Z,91.16
2023-05-25T05:15:18.147Z,90.94
2023-05-25T05:17:48.875Z,90.91
2023-05-25T05:20:18.089Z,90.91
2023-05-25T05:22:48.127Z,90.97
2023-05-25T05:25:17.136Z,91.10
2023-05-25T05:27:46.147Z,91.07
2023-05-25T05:30:20.565Z,91.20
2023-05-25T05:32:49.657Z,90.71
2023-05-25T05:35:19.908Z,91.02
2023-05-25T05:37:50.252Z,91.10
2023-05-25T05:40:19.254Z,91.48
2023-05-25T05:42:48.874Z,91.36
2023-05-25T05:45:18.383Z,91.31
2023-05-25T05:47:47.714Z,91.41
2023-05-25T05:50:16.994Z,91.54
2023-05-25T05:52:46.360Z,91.46
2023-05-25T05:55:16.501Z,91.41
2023-05-25T05:57:46.177Z,91.61
2023-05-25T06:00:17.276Z,91.23
2023-05-25T06:02:48.021Z,91.22
2023-05-25T06:05:21.897Z,91.27
2023-05-25T06:07:51.384Z,91.20
2023-05-25T06:10:22.534Z,91.64
2023-05-25T06:12:51.763Z,91.48
2023-05-25T06:15:20.679Z,91.48
2023-05-25T06:17:51.843Z,91.57
2023-05-25T06:20:20.939Z,91.52
2023-05-25T06:22:50.074Z,91.67
2023-05-25T06:25:21.438Z,91.39
2023-05-25T06:27:52.204Z,91.63
2023-05-25T06:30:21.401Z,91.33
2023-05-25T06:32:50.403Z,91.82
2023-05-25T06:35:22.307Z,91.53
2023-05-25T06:37:53.472Z,91.56
2023-05-25T06:40:23.091Z,91.78
2023-05-25T06:42:52.644Z,91.62
2023-05-25T06:45:43.687Z,91.68
2023-05-25T06:48:12.984Z,91.53
2023-05-25T06:50:43.656Z,91.17
2023-05-25T06:53:13.104Z,91.61
2023-05-25T06:55:42.162Z,91.54
2023-05-25T06:58:12.243Z,91.62
2023-05-25T07:00:41.448Z,91.57
2023-05-25T07:03:20.598Z,91.31
2023-05-25T07:05:49.629Z,91.66
2023-05-25T07:08:18.657Z,91.38
2023-05-25T07:10:50.012Z,91.19
2023-05-25T07:13:19.448Z,91.42
2023-05-25T07:15:48.642Z,91.21
2023-05-25T07:18:17.828Z,91.29
2023-05-25T07:20:47.193Z,91.44
2023-05-25T07:23:16.472Z,91.37
2023-05-25T07:25:46.598Z,91.34
2023-05-25T07:28:15.796Z,91.56
2023-05-25T07:30:45.076Z,91.45
2023-05-25T07:33:14.104Z,91.61
2023-05-25T07:35:54.932Z,91.62
2023-05-25T07:38:23.934Z,91.37
2023-05-25T07:40:53.187Z,91.49
2023-05-25T07:43:23.953Z,91.44
2023-05-25T07:45:52.971Z,91.60
2023-05-25T07:48:22.138Z,91.60
2023-05-25T07:50:51.054Z,91.65
2023-05-25T07:53:22.985Z,91.45
2023-05-25T07:55:52.382Z,91.96
2023-05-25T07:58:21.305Z,91.69
2023-05-25T08:00:51.425Z,91.48
2023-05-25T08:03:31.798Z,91.46
2023-05-25T08:06:09.234Z,91.75
2023-05-25T08:08:38.132Z,91.56
2023-05-25T08:11:07.239Z,91.94
2023-05-25T08:13:36.657Z,91.55
2023-05-25T08:16:06.322Z,92.27
2023-05-25T08:18:36.449Z,91.73
2023-05-25T08:21:05.465Z,91.77
2023-05-25T08:23:34.486Z,91.80
2023-05-25T08:26:11.584Z,92.49
2023-05-25T08:28:49.736Z,91.99
2023-05-25T08:31:18.693Z,91.84
2023-05-25T08:33:47.757Z,92.09
2023-05-25T08:36:16.832Z,92.54
2023-05-25T08:38:46.583Z,92.35
2023-05-25T08:41:15.635Z,92.44
2023-05-25T08:43:47.745Z,92.26
2023-05-25T08:46:32.031Z,92.16
2023-05-25T08:49:13.092Z,92.63
2023-05-25T08:51:52.375Z,92.74
2023-05-25T08:54:26.972Z,92.98
2023-05-25T08:57:15.065Z,92.75
2023-05-25T09:00:12.606Z,92.34
2023-05-25T09:03:00.611Z,92.31
2023-05-25T09:05:29.676Z,92.27
2023-05-25T09:07:59.435Z,92.31
2023-05-25T09:10:29.689Z,92.78
2023-05-25T09:12:58.632Z,93.11
2023-05-25T09:15:27.614Z,92.65
2023-05-25T09:17:56.688Z,92.33
2023-05-25T09:20:32.050Z,92.66
2023-05-25T09:23:01.685Z,92.62
2023-05-25T09:25:32.489Z,92.59
2023-05-25T09:28:10.186Z,92.49
2023-05-25T09:30:46.857Z,92.52
2023-05-25T09:33:19.997Z,92.34
2023-05-25T09:35:52.323Z,92.32
2023-05-25T09:38:22.434Z,91.68
2023-05-25T09:40:52.375Z,91.22
2023-05-25T09:43:32.474Z,90.02
2023-05-25T09:46:09.518Z,90.06
2023-05-25T09:48:38.736Z,89.50
2023-05-25T09:51:09.389Z,90.10
2023-05-25T09:53:38.509Z,90.83
2023-05-25T09:56:07.569Z,91.06
2023-05-25T09:58:37.876Z,91.02
2023-05-25T10:01:08.319Z,90.93
2023-05-25T10:06:38.054Z,91.28
2023-05-25T10:09:09.931Z,91.39
2023-05-25T10:11:44.105Z,91.48
2023-05-25T10:14:18.649Z,92.09
2023-05-25T10:16:51.158Z,92.36
2023-05-25T10:19:47.287Z,92.80
2023-05-25T10:22:33.533Z,92.72
2023-05-25T10:25:13.936Z,92.74
2023-05-25T10:27:48.518Z,92.69
2023-05-25T10:30:18.866Z,92.95
2023-05-25T10:32:48.907Z,92.98
2023-05-25T10:35:19.577Z,92.93
2023-05-25T10:37:53.712Z,92.85
2023-05-25T10:40:23.486Z,92.86
2023-05-25T10:42:52.626Z,92.86
2023-05-25T10:45:23.176Z,92.78
2023-05-25T10:47:52.273Z,93.05
2023-05-25T10:50:28.435Z,93.11
2023-05-25T10:53:07.372Z,92.80
2023-05-25T10:56:06.818Z,93.17
2023-05-25T10:58:36.075Z,92.92
2023-05-25T11:01:10.513Z,93.24
2023-05-25T11:03:46.378Z,92.97
2023-05-25T11:06:16.960Z,93.39
2023-05-25T11:08:56.550Z,93.53
2023-05-25T11:12:04.057Z,93.20
2023-05-25T11:14:42.782Z,93.13
2023-05-25T11:17:15.809Z,93.21
2023-05-25T11:19:51.921Z,93.41
2023-05-25T11:22:32.348Z,93.42
2023-05-25T11:25:04.215Z,93.17
2023-05-25T11:27:46.371Z,93.40
2023-05-25T11:30:18.792Z,93.69
2023-05-25T11:32:51.815Z,93.67
2023-05-25T11:35:22.540Z,93.76
2023-05-25T11:37:54.251Z,93.81
2023-05-25T11:40:26.497Z,94.15
2023-05-25T11:42:58.183Z,93.58
2023-05-25T11:45:35.083Z,93.69
2023-05-25T11:48:06.696Z,93.51
2023-05-25T11:50:37.969Z,93.75
2023-05-25T11:53:07.890Z,93.99
2023-05-25T11:55:40.700Z,93.83
2023-05-25T11:58:09.921Z,93.71
2023-05-25T12:00:39.886Z,93.73
2023-05-25T12:03:11.266Z,93.60
2023-05-25T12:05:40.720Z,93.73
2023-05-25T12:08:09.691Z,94.45
2023-05-25T12:10:51.757Z,94.09
2023-05-25T12:13:22.323Z,94.08
2023-05-25T12:15:53.036Z,93.63
2023-05-25T12:18:22.210Z,94.28
2023-05-25T12:20:52.500Z,94.13
2023-05-25T12:23:22.085Z,93.50
2023-05-25T12:26:06.181Z,93.65
2023-05-25T12:28:35.469Z,94.38
2023-05-25T12:31:24.382Z,94.10
2023-05-25T12:34:10.196Z,94.00
2023-05-25T12:36:44.370Z,93.86
2023-05-25T12:39:16.272Z,94.00
2023-05-25T12:41:55.108Z,94.07
2023-05-25T12:44:24.532Z,93.68
2023-05-25T12:46:55.160Z,94.28
2023-05-25T12:49:32.828Z,93.58
2023-05-25T12:52:04.459Z,94.22
2023-05-25T12:54:44.714Z,93.97
2023-05-25T12:57:17.868Z,94.24
2023-05-25T12:59:48.320Z,94.11
2023-05-25T13:02:18.235Z,94.52
2023-05-25T13:04:47.448Z,94.05
2023-05-25T13:07:16.579Z,94.42
2023-05-25T13:09:45.649Z,94.65
2023-05-25T13:12:14.661Z,94.03
2023-05-25T13:14:44.004Z,93.88
2023-05-25T13:17:13.227Z,93.98
2023-05-25T13:19:42.282Z,94.18
2023-05-25T13:22:11.409Z,93.82
2023-05-25T13:24:40.311Z,94.00
2023-05-25T13:27:09.245Z,94.12
2023-05-25T13:29:38.170Z,94.08
2023-05-25T13:32:08.060Z,93.91
2023-05-25T13:34:37.030Z,93.58
2023-05-25T13:37:09.198Z,94.14
2023-05-25T13:39:39.537Z,94.25
2023-05-25T13:42:08.601Z,93.93
2023-05-25T13:44:37.826Z,94.24
2023-05-25T13:47:07.148Z,93.94
2023-05-25T13:49:37.071Z,94.16
2023-05-25T13:52:06.301Z,93.66
2023-05-25T13:54:35.215Z,94.14
2023-05-25T13:57:04.611Z,94.13
2023-05-25T13:59:33.714Z,94.43
2023-05-25T14:02:03.657Z,94.15
2023-05-25T14:04:36.044Z,94.58
2023-05-25T14:07:05.219Z,94.50
2023-05-25T14:09:34.027Z,94.40
2023-05-25T14:12:03.785Z,93.58
2023-05-25T14:14:33.131Z,93.86
2023-05-25T14:17:02.216Z,93.65
2023-05-25T14:19:31.559Z,93.73
2023-05-25T14:22:12.346Z,93.95
2023-05-25T14:24:42.811Z,94.38
2023-05-25T14:27:11.755Z,93.93
2023-05-25T14:29:41.118Z,94.21
2023-05-25T14:32:10.110Z,94.06
2023-05-25T14:34:39.237Z,93.82
2023-05-25T14:37:08.438Z,93.74
2023-05-25T14:39:38.370Z,94.32
2023-05-25T14:42:07.484Z,94.29
2023-05-25T14:44:36.598Z,93.62
2023-05-25T14:47:06.199Z,93.47
2023-05-25T14:49:36.656Z,93.96
2023-05-25T14:52:05.666Z,93.58
2023-05-25T14:54:34.765Z,93.77
2023-05-25T14:57:03.922Z,93.77
2023-05-25T14:59:33.064Z,94.02
2023-05-25T15:02:02.703Z,94.48
2023-05-25T15:04:32.781Z,94.03
2023-05-25T15:07:05.205Z,94.29
2023-05-25T15:09:34.560Z,94.22
2023-05-25T15:12:03.456Z,94.15
2023-05-25T15:14:32.324Z,94.00
2023-05-25T15:17:02.611Z,94.04
2023-05-25T15:19:31.548Z,93.96
2023-05-25T15:22:00.952Z,94.40
2023-05-25T15:24:30.148Z,94.54
2023-05-25T15:26:59.068Z,93.77
2023-05-25T15:29:27.969Z,94.19
2023-05-25T15:31:56.822Z,93.97
2023-05-25T15:34:25.783Z,93.78
2023-05-25T15:36:54.772Z,93.90
2023-05-25T15:39:23.679Z,94.44
2023-05-25T15:41:53.049Z,94.26
2023-05-25T15:44:22.220Z,94.13
2023-05-25T15:46:51.578Z,94.28
2023-05-25T15:49:20.916Z,94.36
2023-05-25T15:51:50.076Z,94.07
2023-05-25T15:54:19.171Z,93.99
2023-05-25T15:56:48.189Z,94.17
2023-05-25T15:59:17.443Z,93.91
2023-05-25T16:01:47.243Z,94.19
2023-05-25T16:04:16.751Z,94.25
2023-05-25T16:06:46.007Z,94.19
2023-05-25T16:09:15.074Z,93.93
2023-05-25T16:11:44.275Z,94.01
2023-05-25T16:14:14.513Z,94.06
2023-05-25T16:16:43.636Z,94.54
2023-05-25T16:19:14.075Z,94.24
2023-05-25T16:21:43.598Z,94.18
2023-05-25T16:24:12.552Z,94.40
2023-05-25T16:26:41.515Z,94.28
2023-05-25T16:29:10.516Z,94.21
2023-05-25T16:31:39.940Z,93.79
2023-05-25T16:34:08.972Z,94.22
2023-05-25T16:36:37.982Z,94.38
2023-05-25T16:39:08.442Z,94.14
2023-05-25T16:41:37.400Z,94.09
2023-05-25T16:44:06.297Z,93.64
2023-05-25T16:46:35.463Z,93.50
2023-05-25T16:49:05.276Z,94.02
2023-05-25T16:51:34.406Z,94.16
2023-05-25T16:54:03.653Z,93.88
2023-05-25T16:56:32.635Z,94.41
2023-05-25T16:59:01.682Z,93.81
2023-05-25T17:01:32.009Z,94.29
2023-05-25T17:04:01.565Z,94.18
2023-05-25T17:06:30.778Z,93.93
2023-05-25T17:09:00.069Z,93.93
2023-05-25T17:11:29.287Z,94.05
2023-05-25T17:13:58.632Z,94.43
2023-05-25T17:16:27.583Z,93.94
2023-05-25T17:18:56.552Z,94.17
2023-05-25T17:21:25.684Z,93.92
2023-05-25T17:23:54.612Z,94.05
2023-05-25T17:26:23.621Z,94.11
2023-05-25T17:28:57.176Z,93.60
2023-05-25T17:31:28.417Z,94.13
2023-05-25T17:33:57.858Z,93.61
2023-05-25T17:36:27.005Z,94.36
2023-05-25T17:38:55.952Z,94.28
2023-05-25T17:41:25.019Z,93.79
2023-05-25T17:43:53.903Z,93.98
2023-05-25T17:46:22.986Z,93.63
2023-05-25T17:48:52.137Z,94.00
2023-05-25T17:51:21.945Z,93.97
2023-05-25T17:53:50.948Z,94.10
2023-05-25T17:56:19.770Z,94.15
2023-05-25T17:58:48.996Z,94.28
2023-05-25T18:01:19.134Z,94.32
2023-05-25T18:03:51.240Z,93.85
2023-05-25T18:06:20.289Z,93.92
2023-05-25T18:08:49.140Z,93.91
2023-05-25T18:11:18.182Z,93.68
2023-05-25T18:13:47.319Z,94.42
2023-05-25T18:16:16.279Z,94.63
2023-05-25T18:18:45.211Z,94.35
2023-05-25T18:21:14.399Z,94.19
2023-05-25T18:23:43.302Z,94.19
2023-05-25T18:26:12.358Z,94.04
2023-05-25T18:28:41.299Z,94.09
2023-05-25T18:31:10.382Z,94.43
2023-05-25T18:33:41.520Z,94.78
2023-05-25T18:36:10.453Z,94.88
2023-05-25T18:38:39.400Z,94.29
2023-05-25T18:41:08.465Z,94.67
2023-05-25T18:43:37.413Z,94.60
2023-05-25T18:46:06.612Z,94.04
2023-05-25T18:48:35.678Z,94.61
2023-05-25T18:51:04.875Z,93.97
2023-05-25T18:53:33.856Z,94.09
2023-05-25T18:56:02.949Z,94.09
2023-05-25T18:58:31.826Z,94.80
2023-05-25T19:01:01.858Z,94.36
2023-05-25T19:03:31.168Z,94.84
2023-05-25T19:06:00.200Z,94.90
2023-05-25T19:08:29.086Z,94.03
2023-05-25T19:10:57.947Z,94.14
2023-05-25T19:13:26.836Z,93.81
2023-05-25T19:15:55.816Z,94.24
2023-05-25T19:18:24.829Z,94.29
2023-05-25T19:20:53.846Z,94.43
2023-05-25T19:23:22.915Z,93.81
2023-05-25T19:25:51.801Z,93.91
2023-05-25T19:28:20.746Z,94.02
2023-05-25T19:30:49.630Z,94.33
2023-05-25T19:33:18.941Z,94.17
2023-05-25T19:35:48.313Z,93.94
2023-05-25T19:38:17.242Z,94.00
2023-05-25T19:40:46.399Z,94.05
2023-05-25T19:43:15.264Z,93.99
2023-05-25T19:45:45.167Z,94.21
2023-05-25T19:48:14.202Z,94.37
2023-05-25T19:50:43.202Z,94.18
2023-05-25T19:53:12.122Z,94.48
2023-05-25T19:55:41.448Z,94.09
2023-05-25T19:58:10.754Z,94.22
2023-05-25T20:00:40.171Z,93.83
2023-05-25T20:03:09.826Z,93.77
2023-05-25T20:05:38.788Z,93.87
2023-05-25T20:08:08.240Z,93.87
2023-05-25T20:10:40.046Z,94.13
2023-05-25T20:13:09.365Z,93.87
2023-05-25T20:15:38.551Z,94.00
2023-05-25T20:18:07.457Z,93.79
2023-05-25T20:20:37.207Z,94.01
2023-05-25T20:23:06.210Z,93.95
2023-05-25T20:25:34.936Z,94.67
2023-05-25T20:28:03.904Z,94.18
2023-05-25T20:30:32.757Z,94.47
2023-05-25T20:33:01.826Z,93.72
2023-05-25T20:35:31.478Z,94.21
2023-05-25T20:38:00.357Z,94.33
2023-05-25T20:40:29.191Z,94.11
2023-05-25T20:42:58.563Z,93.82
2023-05-25T20:45:27.546Z,94.02
2023-05-25T20:48:04.387Z,94.04
2023-05-25T20:50:33.311Z,94.16
2023-05-25T20:53:02.338Z,94.38
2023-05-25T20:55:31.238Z,93.97
2023-05-25T20:58:01.592Z,94.20
2023-05-25T21:00:30.856Z,94.58
2023-05-25T21:03:00.530Z,94.53
2023-05-25T21:05:29.534Z,94.21
2023-05-25T21:07:58.435Z,94.58
2023-05-25T21:10:27.449Z,94.32
2023-05-25T21:12:56.639Z,94.23
2023-05-25T21:15:27.591Z,94.59
2023-05-25T21:17:56.690Z,94.17
2023-05-25T21:20:26.750Z,94.47
2023-05-25T21:22:55.823Z,94.37
2023-05-25T21:25:24.958Z,94.37
2023-05-25T21:27:57.123Z,94.41
2023-05-25T21:30:26.291Z,94.52
2023-05-25T21:32:55.380Z,94.11
2023-05-25T21:35:24.225Z,93.96
2023-05-25T21:37:53.121Z,94.07
2023-05-25T21:40:21.929Z,93.96
2023-05-25T21:42:53.891Z,94.31
2023-05-25T21:45:22.994Z,95.09
2023-05-25T21:47:51.946Z,94.93
2023-05-25T21:50:21.120Z,94.48
2023-05-25T21:52:51.186Z,94.23
2023-05-25T21:55:20.183Z,94.45
2023-05-25T21:57:49.403Z,94.68
2023-05-25T22:00:20.046Z,94.80
2023-05-25T22:02:49.531Z,94.37
2023-05-25T22:05:18.680Z,94.34
2023-05-25T22:07:47.747Z,94.85
2023-05-25T22:10:16.627Z,94.40
2023-05-25T22:12:45.496Z,94.29
2023-05-25T22:15:14.330Z,94.16
2023-05-25T22:17:43.213Z,94.51
2023-05-25T22:20:12.620Z,94.01
2023-05-25T22:22:41.548Z,94.57
2023-05-25T22:25:10.535Z,94.42
2023-05-25T22:27:39.959Z,94.12
2023-05-25T22:30:09.385Z,94.57
2023-05-25T22:32:38.359Z,94.12
2023-05-25T22:35:10.100Z,94.17
2023-05-25T22:37:39.096Z,94.19
2023-05-25T22:40:08.436Z,94.54
2023-05-25T22:42:37.196Z,94.14
2023-05-25T22:45:06.733Z,94.17
2023-05-25T22:47:35.696Z,94.27
2023-05-25T22:50:04.659Z,94.32
2023-05-25T22:52:33.596Z,94.21
2023-05-25T22:55:02.498Z,94.85
2023-05-25T22:57:32.899Z,94.32
2023-05-25T23:00:01.877Z,94.63
2023-05-25T23:02:35.455Z,94.75
2023-05-25T23:05:04.810Z,94.23
2023-05-25T23:07:34.080Z,94.51
2023-05-25T23:10:03.668Z,94.70
2023-05-25T23:12:34.658Z,94.70
2023-05-25T23:15:03.597Z,94.26
2023-05-25T23:17:38.084Z,94.61
2023-05-25T23:20:08.233Z,94.50
2023-05-25T23:22:37.312Z,94.64
2023-05-25T23:25:06.624Z,94.51
2023-05-25T23:27:35.539Z,94.61
2023-05-25T23:30:05.345Z,94.97
2023-05-25T23:32:37.383Z,94.75
2023-05-25T23:35:07.131Z,94.19
2023-05-25T23:37:36.021Z,94.44
2023-05-25T23:40:06.033Z,94.66
2023-05-25T23:42:40.320Z,94.61
2023-05-25T23:45:09.919Z,94.36
2023-05-25T23:47:38.871Z,94.35
2023-05-25T23:50:08.017Z,94.84
2023-05-25T23:52:36.946Z,94.68
2023-05-25T23:55:07.023Z,94.17
2023-05-25T23:57:37.185Z,94.22
